Time;durP1;ratioP1;P1;durP2;ratioP2;P2;SDS_P1;SDS_P2;PMS_P1;PMS_P2;Temp;Humidity;BMP_temperature;BMP_pressure;BME280_temperature;BME280_humidity;BME280_pressure;Samples;Min_cycle;Max_cycle;Signal;HPM_P1;HPM_P2
2021/07/01 00:02:18;;;;;;;8.03;7.83;;;24.20;91.20;;;;;;3537069;40;20482;-63
2021/07/01 00:04:46;;;;;;;8.13;7.80;;;24.20;91.20;;;;;;3537615;40;20854;-63
2021/07/01 00:07:14;;;;;;;8.00;7.80;;;24.20;91.20;;;;;;3535954;40;20475;-63
2021/07/01 00:09:42;;;;;;;7.97;7.77;;;24.20;91.20;;;;;;3527463;40;20494;-62
2021/07/01 00:12:10;;;;;;;7.80;7.60;;;24.20;91.10;;;;;;3526879;40;20479;-63
2021/07/01 00:14:38;;;;;;;8.13;7.93;;;24.20;91.10;;;;;;3527025;40;20522;-63
2021/07/01 00:17:05;;;;;;;8.30;8.10;;;24.20;91.10;;;;;;3527790;40;20487;-63
2021/07/01 00:19:32;;;;;;;8.40;8.20;;;24.20;91.10;;;;;;3537539;40;20482;-63
2021/07/01 00:22:00;;;;;;;8.30;8.00;;;24.20;91.00;;;;;;3537472;40;20538;-63
2021/07/01 00:24:27;;;;;;;8.33;8.03;;;24.20;91.10;;;;;;3528308;40;20482;-62
2021/07/01 00:26:54;;;;;;;8.03;7.83;;;24.20;91.10;;;;;;3527262;40;20493;-63
2021/07/01 00:29:23;;;;;;;8.70;8.40;;;24.20;91.00;;;;;;3536260;40;20467;-63
2021/07/01 00:31:53;;;;;;;8.40;8.10;;;24.20;91.00;;;;;;3536813;40;20459;-63
2021/07/01 00:34:21;;;;;;;8.50;8.30;;;24.20;91.00;;;;;;3538438;40;20486;-62
2021/07/01 00:36:51;;;;;;;8.43;8.13;;;24.20;90.90;;;;;;3537498;40;20565;-63
2021/07/01 00:39:19;;;;;;;9.10;8.80;;;24.20;90.90;;;;;;3520815;40;20617;-62
2021/07/01 00:41:47;;;;;;;8.80;8.50;;;24.20;90.90;;;;;;3532186;40;20884;-63
2021/07/01 00:44:15;;;;;;;8.00;7.80;;;24.20;90.90;;;;;;3527128;40;20478;-63
2021/07/01 00:46:46;;;;;;;8.63;8.30;;;24.20;90.90;;;;;;3527888;40;20481;-63
2021/07/01 00:49:13;;;;;;;8.53;8.23;;;24.20;90.90;;;;;;3526316;40;20480;-63
2021/07/01 00:51:41;;;;;;;8.70;8.30;;;24.20;90.90;;;;;;3517430;40;20475;-63
2021/07/01 00:54:10;;;;;;;8.80;8.47;;;24.20;90.80;;;;;;3525037;40;20472;-63
2021/07/01 00:56:40;;;;;;;8.80;8.40;;;24.20;90.80;;;;;;3514790;40;20500;-63
2021/07/01 00:59:11;;;;;;;8.70;8.40;;;24.20;90.70;;;;;;3522111;40;20500;-63
2021/07/01 01:01:41;;;;;;;8.23;8.03;;;24.20;90.70;;;;;;3517023;40;20996;-62
2021/07/01 01:04:10;;;;;;;8.77;8.47;;;24.20;90.70;;;;;;3523563;40;20484;-63
2021/07/01 01:06:40;;;;;;;8.70;8.40;;;24.20;90.70;;;;;;3526833;40;20818;-62
2021/07/01 01:09:09;;;;;;;8.57;8.37;;;24.20;90.70;;;;;;3533250;40;20475;-62
2021/07/01 01:11:36;;;;;;;8.73;8.43;;;24.20;90.70;;;;;;3524944;40;20933;-63
2021/07/01 01:14:11;;;;;;;9.23;8.93;;;24.20;90.70;;;;;;3525937;40;20515;-63
2021/07/01 01:16:46;;;;;;;8.50;8.23;;;24.20;90.70;;;;;;3525250;40;20863;-63
2021/07/01 01:19:15;;;;;;;8.67;8.47;;;24.20;90.70;;;;;;3525419;40;20566;-63
2021/07/01 01:21:48;;;;;;;8.60;8.30;;;24.20;90.70;;;;;;3526061;40;21091;-63
2021/07/01 01:24:16;;;;;;;8.80;8.60;;;24.20;90.60;;;;;;3526427;40;20472;-63
2021/07/01 01:26:44;;;;;;;8.63;8.33;;;24.20;91.00;;;;;;3525099;40;20472;-62
2021/07/01 01:29:13;;;;;;;8.87;8.57;;;24.20;90.60;;;;;;3525425;40;20703;-63
2021/07/01 01:31:42;;;;;;;9.03;8.63;;;24.20;90.60;;;;;;3533676;40;20880;-63
2021/07/01 01:34:09;;;;;;;9.13;8.83;;;24.20;90.60;;;;;;3526328;40;20559;-63
2021/07/01 01:36:40;;;;;;;9.40;9.10;;;24.20;90.50;;;;;;3524404;40;20527;-62
2021/07/01 01:39:10;;;;;;;8.93;8.53;;;24.20;90.50;;;;;;3525463;40;21096;-62
2021/07/01 01:41:44;;;;;;;9.00;8.60;;;24.20;90.60;;;;;;3526034;40;20484;-63
2021/07/01 01:44:12;;;;;;;9.10;8.60;;;24.10;90.50;;;;;;3524847;40;20472;-63
2021/07/01 01:46:41;;;;;;;9.27;8.70;;;24.10;90.50;;;;;;3525417;40;20475;-63
2021/07/01 01:49:11;;;;;;;9.20;8.90;;;24.10;90.50;;;;;;3526853;40;20483;-63
2021/07/01 01:51:41;;;;;;;8.90;8.60;;;24.10;90.50;;;;;;3525179;40;21195;-63
2021/07/01 01:54:12;;;;;;;9.07;8.77;;;24.10;90.50;;;;;;3516493;40;20476;-63
2021/07/01 01:56:48;;;;;;;9.40;9.10;;;24.10;90.60;;;;;;3521223;40;20507;-62
2021/07/01 01:59:37;;;;;;;9.00;8.70;;;24.10;90.50;;;;;;3486812;41;20493;-63
2021/07/01 02:02:39;;;;;;;9.30;9.00;;;24.20;90.50;;;;;;3513140;40;20489;-63
2021/07/01 02:05:25;;;;;;;9.93;9.47;;;24.10;90.50;;;;;;3536358;40;20474;-63
2021/07/01 02:07:54;;;;;;;8.73;8.43;;;24.10;90.50;;;;;;3529257;40;20850;-63
2021/07/01 02:10:36;;;;;;;9.60;9.30;;;24.20;90.50;;;;;;3534201;40;21119;-63
2021/07/01 02:13:10;;;;;;;8.90;8.63;;;24.10;90.50;;;;;;3536045;40;20502;-63
2021/07/01 02:15:39;;;;;;;9.93;9.40;;;24.10;90.50;;;;;;3535386;40;20478;-63
2021/07/01 02:18:10;;;;;;;9.60;9.17;;;24.10;90.50;;;;;;3524427;40;20498;-63
2021/07/01 02:20:39;;;;;;;9.17;8.87;;;24.10;90.50;;;;;;3525662;40;20530;-63
2021/07/01 02:23:07;;;;;;;9.23;8.93;;;24.20;90.60;;;;;;3527385;40;20516;-63
2021/07/01 02:25:45;;;;;;;9.33;8.93;;;24.10;90.50;;;;;;3534732;40;20473;-63
2021/07/01 02:28:16;;;;;;;9.57;9.17;;;24.20;90.50;;;;;;3528451;40;20483;-63
2021/07/01 02:31:04;;;;;;;9.00;8.70;;;24.10;90.40;;;;;;3528067;40;20490;-63
2021/07/01 02:33:36;;;;;;;9.70;9.40;;;24.10;90.40;;;;;;3526333;40;20483;-63
2021/07/01 02:36:05;;;;;;;9.37;9.07;;;24.10;90.40;;;;;;3534733;40;20466;-62
2021/07/01 02:38:53;;;;;;;9.70;9.30;;;24.10;90.40;;;;;;3535604;40;20463;-63
2021/07/01 02:41:22;;;;;;;9.53;9.23;;;24.10;90.40;;;;;;3534769;40;20581;-63
2021/07/01 02:43:51;;;;;;;9.90;9.60;;;24.10;90.40;;;;;;3534175;40;20486;-63
2021/07/01 02:46:38;;;;;;;9.50;9.20;;;24.10;90.40;;;;;;3534125;40;20482;-63
2021/07/01 02:49:12;;;;;;;9.47;9.17;;;24.10;90.40;;;;;;3542029;40;20478;-63
2021/07/01 02:51:39;;;;;;;10.00;9.60;;;24.10;90.40;;;;;;3542643;40;20466;-63
2021/07/01 02:54:07;;;;;;;9.63;9.20;;;24.10;90.40;;;;;;3542455;40;20593;-63
2021/07/01 02:56:44;;;;;;;9.60;9.20;;;24.20;90.40;;;;;;3534094;40;20797;-63
2021/07/01 02:59:16;;;;;;;10.07;9.67;;;24.10;90.40;;;;;;3526084;40;20481;-62
2021/07/01 03:02:12;;;;;;;9.43;9.03;;;24.10;90.40;;;;;;3534366;40;20494;-62
2021/07/01 03:04:53;;;;;;;10.40;10.10;;;24.10;90.30;;;;;;3530633;40;20896;-63
2021/07/01 03:07:23;;;;;;;10.37;10.07;;;24.10;90.30;;;;;;3519835;40;20507;-63
2021/07/01 03:09:50;;;;;;;9.70;9.40;;;24.10;90.30;;;;;;3533484;40;20490;-63
2021/07/01 03:12:19;;;;;;;9.93;9.53;;;24.10;90.30;;;;;;3533998;40;20499;-63
2021/07/01 03:14:46;;;;;;;10.57;10.17;;;24.10;90.30;;;;;;3525629;40;20475;-63
2021/07/01 03:17:14;;;;;;;9.83;9.53;;;24.10;90.30;;;;;;3531692;40;20472;-63
2021/07/01 03:19:41;;;;;;;9.90;9.60;;;24.10;90.30;;;;;;3515552;40;20488;-63
2021/07/01 03:22:29;;;;;;;9.83;9.53;;;24.10;90.30;;;;;;3527244;40;20609;-63
2021/07/01 03:24:57;;;;;;;10.53;10.13;;;24.10;90.30;;;;;;3532876;40;20478;-63
2021/07/01 03:27:26;;;;;;;9.90;9.60;;;24.10;90.30;;;;;;3518272;40;20485;-63
2021/07/01 03:29:54;;;;;;;10.23;9.83;;;24.10;90.30;;;;;;3533177;40;20942;-63
2021/07/01 03:32:21;;;;;;;10.40;10.10;;;24.10;90.30;;;;;;3525629;40;20744;-63
2021/07/01 03:34:48;;;;;;;10.30;10.00;;;24.10;90.30;;;;;;3534470;40;20482;-63
2021/07/01 03:37:26;;;;;;;10.70;10.40;;;24.10;90.30;;;;;;3533961;40;20805;-62
2021/07/01 03:40:23;;;;;;;10.87;10.47;;;24.10;90.30;;;;;;3534201;40;20470;-63
2021/07/01 03:42:53;;;;;;;11.00;10.60;;;24.10;90.30;;;;;;3533612;40;20467;-63
2021/07/01 03:45:21;;;;;;;11.53;11.13;;;24.10;90.30;;;;;;3532071;40;20490;-63
2021/07/01 03:47:52;;;;;;;12.10;11.70;;;24.10;90.30;;;;;;3527024;40;20797;-63
2021/07/01 03:50:19;;;;;;;11.70;11.30;;;24.10;90.30;;;;;;3522234;40;20511;-63
2021/07/01 03:53:09;;;;;;;12.00;11.60;;;24.10;90.20;;;;;;3515571;40;20532;-63
2021/07/01 03:55:38;;;;;;;12.10;11.70;;;24.10;90.30;;;;;;3514808;40;20480;-62
2021/07/01 03:58:08;;;;;;;11.10;10.80;;;24.10;90.20;;;;;;3514969;40;20484;-63
2021/07/01 04:00:36;;;;;;;11.20;10.80;;;24.10;90.20;;;;;;3514197;40;20472;-63
2021/07/01 04:03:10;;;;;;;11.37;10.90;;;24.10;90.20;;;;;;3511309;40;20528;-63
2021/07/01 04:06:08;;;;;;;11.50;11.10;;;24.10;90.30;;;;;;3520068;40;20480;-63
2021/07/01 04:08:36;;;;;;;11.47;11.10;;;24.10;90.20;;;;;;3522511;40;20471;-63
2021/07/01 04:11:09;;;;;;;12.13;11.73;;;24.10;90.20;;;;;;3522202;40;20733;-62
2021/07/01 04:13:39;;;;;;;12.80;12.40;;;24.10;90.20;;;;;;3528299;40;20491;-62
2021/07/01 04:16:30;;;;;;;12.80;12.37;;;24.10;90.20;;;;;;3492098;41;20835;-63
2021/07/01 04:19:18;;;;;;;12.73;12.33;;;24.10;90.20;;;;;;3480702;41;20535;-63
2021/07/01 04:22:05;;;;;;;12.50;11.73;;;24.10;90.20;;;;;;3492306;41;20600;-64
2021/07/01 04:24:59;;;;;;;12.23;11.83;;;24.10;90.20;;;;;;3498448;41;20497;-63
2021/07/01 04:27:34;;;;;;;11.57;11.17;;;24.10;90.20;;;;;;3516999;40;20738;-63
2021/07/01 04:30:07;;;;;;;11.43;10.93;;;24.10;90.20;;;;;;3531829;40;20485;-63
2021/07/01 04:32:56;;;;;;;11.07;10.67;;;24.10;90.30;;;;;;3531192;40;20721;-63
2021/07/01 04:35:25;;;;;;;11.20;10.83;;;24.10;90.20;;;;;;3537231;40;20498;-63
2021/07/01 04:37:54;;;;;;;11.37;10.87;;;24.10;90.20;;;;;;3519395;40;20495;-63
2021/07/01 04:40:23;;;;;;;11.10;10.70;;;24.10;90.30;;;;;;3520764;40;20625;-63
2021/07/01 04:42:50;;;;;;;11.43;11.03;;;24.10;90.20;;;;;;3531447;40;20574;-63
2021/07/01 04:45:19;;;;;;;11.20;10.80;;;24.00;90.20;;;;;;3530292;40;20502;-63
2021/07/01 04:47:47;;;;;;;11.20;10.80;;;24.00;90.20;;;;;;3531558;40;20463;-63
2021/07/01 04:50:15;;;;;;;10.83;10.50;;;24.00;90.20;;;;;;3529427;40;20956;-63
2021/07/01 04:52:43;;;;;;;11.50;11.10;;;24.00;90.20;;;;;;3531611;40;20549;-63
2021/07/01 04:55:31;;;;;;;11.50;11.00;;;24.00;90.50;;;;;;3530996;40;20895;-63
2021/07/01 04:58:18;;;;;;;10.60;10.27;;;24.10;90.30;;;;;;3529882;40;20486;-62
2021/07/01 05:00:58;;;;;;;11.07;10.53;;;24.10;90.30;;;;;;3528012;40;20493;-63
2021/07/01 05:03:44;;;;;;;11.47;11.07;;;24.00;90.30;;;;;;3521284;40;20610;-63
2021/07/01 05:06:12;;;;;;;11.13;10.73;;;24.10;90.30;;;;;;3534119;40;20478;-63
2021/07/01 05:08:41;;;;;;;10.97;10.57;;;24.10;90.40;;;;;;3525873;40;20469;-63
2021/07/01 05:11:09;;;;;;;10.70;10.30;;;24.00;90.30;;;;;;3526100;40;20491;-63
2021/07/01 05:13:36;;;;;;;11.07;10.67;;;24.00;90.30;;;;;;3535392;40;20576;-63
2021/07/01 05:16:06;;;;;;;10.77;10.37;;;24.00;90.30;;;;;;3526966;40;20486;-63
2021/07/01 05:18:34;;;;;;;10.33;10.03;;;24.00;90.30;;;;;;3516814;40;20501;-63
2021/07/01 05:21:22;;;;;;;10.40;10.10;;;24.00;90.30;;;;;;3523795;40;20494;-63
2021/07/01 05:24:23;;;;;;;10.93;10.43;;;24.00;90.60;;;;;;3526619;40;20494;-63
2021/07/01 05:27:10;;;;;;;10.70;10.20;;;24.10;90.40;;;;;;3525061;40;20518;-63
2021/07/01 05:29:57;;;;;;;10.90;10.50;;;24.00;90.40;;;;;;3523896;40;20522;-63
2021/07/01 05:32:53;;;;;;;10.00;9.70;;;24.10;90.50;;;;;;3516051;40;20483;-63
2021/07/01 05:35:26;;;;;;;10.93;10.50;;;24.10;90.50;;;;;;3523584;40;20957;-62
2021/07/01 05:37:56;;;;;;;10.70;10.40;;;24.10;90.50;;;;;;3513574;40;20792;-63
2021/07/01 05:40:27;;;;;;;10.50;10.10;;;24.10;90.50;;;;;;3519194;40;20514;-63
2021/07/01 05:42:58;;;;;;;9.90;9.60;;;24.10;90.60;;;;;;3523976;40;20479;-63
2021/07/01 05:45:27;;;;;;;10.63;10.13;;;24.10;90.60;;;;;;3521667;40;20510;-63
2021/07/01 05:47:58;;;;;;;11.20;10.70;;;24.10;90.60;;;;;;3520213;40;20690;-62
2021/07/01 05:50:26;;;;;;;10.83;10.27;;;24.10;90.60;;;;;;3521224;40;20828;-63
2021/07/01 05:52:59;;;;;;;10.63;10.23;;;24.10;90.50;;;;;;3522515;40;20486;-63
2021/07/01 05:55:28;;;;;;;11.80;10.90;;;24.10;90.60;;;;;;3519451;40;20478;-63
2021/07/01 05:57:59;;;;;;;10.20;9.80;;;24.20;90.60;;;;;;3518835;40;21147;-63
2021/07/01 06:00:29;;;;;;;10.40;9.90;;;24.10;90.60;;;;;;3512153;40;20491;-63
2021/07/01 06:02:58;;;;;;;11.37;10.77;;;24.20;90.60;;;;;;3506162;40;20892;-63
2021/07/01 06:05:29;;;;;;;12.23;11.00;;;24.20;90.60;;;;;;3508029;40;20897;-63
2021/07/01 06:08:21;;;;;;;10.90;10.40;;;24.10;90.60;;;;;;3510099;40;20472;-63
2021/07/01 06:10:51;;;;;;;11.23;10.53;;;24.10;91.00;;;;;;3508019;40;20860;-63
2021/07/01 06:13:24;;;;;;;11.53;10.63;;;24.10;90.70;;;;;;3505770;40;20491;-64
2021/07/01 06:15:53;;;;;;;12.00;11.00;;;24.10;90.70;;;;;;3509228;40;20746;-64
2021/07/01 06:18:22;;;;;;;10.60;10.10;;;24.10;90.70;;;;;;3511822;40;20506;-64
2021/07/01 06:20:51;;;;;;;10.73;10.33;;;24.10;90.70;;;;;;3518743;40;20941;-61
2021/07/01 06:23:20;;;;;;;10.70;10.20;;;24.10;90.80;;;;;;3516416;40;20515;-61
2021/07/01 06:25:49;;;;;;;13.73;12.47;;;24.20;90.80;;;;;;3518751;40;20608;-61
2021/07/01 06:28:17;;;;;;;10.77;10.27;;;24.20;90.80;;;;;;3517191;40;21065;-64
2021/07/01 06:30:46;;;;;;;11.37;10.77;;;24.20;90.80;;;;;;3517618;40;20888;-64
2021/07/01 06:33:16;;;;;;;10.63;10.27;;;24.20;90.80;;;;;;3515247;40;20483;-64
2021/07/01 06:35:49;;;;;;;12.30;11.60;;;24.20;90.80;;;;;;3515381;40;20471;-64
2021/07/01 06:38:22;;;;;;;11.10;10.50;;;24.20;90.80;;;;;;3504892;40;20592;-64
2021/07/01 06:41:10;;;;;;;10.77;10.37;;;24.20;90.80;;;;;;3517523;40;21615;-64
2021/07/01 06:43:58;;;;;;;11.60;10.80;;;24.20;90.80;;;;;;3516926;40;20486;-64
2021/07/01 06:46:45;;;;;;;10.30;9.97;;;24.20;90.80;;;;;;3514521;40;21190;-64
2021/07/01 06:49:32;;;;;;;10.70;10.30;;;24.20;90.80;;;;;;3517241;40;21031;-64
2021/07/01 06:52:22;;;;;;;10.33;9.93;;;24.20;90.80;;;;;;3515391;40;20501;-64
2021/07/01 06:55:12;;;;;;;11.23;10.73;;;24.20;90.80;;;;;;3513856;40;20471;-64
2021/07/01 06:58:08;;;;;;;10.87;10.40;;;24.20;90.80;;;;;;3511267;40;20506;-64
2021/07/01 07:00:36;;;;;;;10.60;10.30;;;24.20;90.90;;;;;;3513612;40;20498;-64
2021/07/01 07:03:05;;;;;;;10.40;10.00;;;24.20;90.80;;;;;;3514916;40;20479;-64
2021/07/01 07:05:33;;;;;;;9.90;9.50;;;24.20;90.80;;;;;;3515511;40;20921;-64
2021/07/01 07:08:05;;;;;;;11.60;11.10;;;24.20;90.80;;;;;;3512845;40;20569;-63
2021/07/01 07:10:32;;;;;;;10.40;10.00;;;24.20;90.80;;;;;;3516142;40;20532;-63
2021/07/01 07:13:01;;;;;;;9.90;9.60;;;24.20;90.80;;;;;;3515683;40;20587;-63
2021/07/01 07:15:28;;;;;;;10.77;10.37;;;24.20;90.90;;;;;;3514666;40;21145;-63
2021/07/01 07:18:01;;;;;;;10.53;10.13;;;24.20;90.80;;;;;;3513213;40;20645;-63
2021/07/01 07:20:30;;;;;;;10.60;10.20;;;24.20;90.80;;;;;;3514558;40;20490;-63
2021/07/01 07:22:59;;;;;;;10.60;10.20;;;24.20;90.80;;;;;;3504817;40;20980;-63
2021/07/01 07:25:28;;;;;;;10.47;9.90;;;24.20;90.80;;;;;;3506363;40;20827;-64
2021/07/01 07:28:07;;;;;;;10.07;9.67;;;24.20;90.80;;;;;;3506859;40;20751;-64
2021/07/01 07:30:36;;;;;;;9.80;9.50;;;24.20;90.80;;;;;;3505607;40;20474;-63
2021/07/01 07:33:06;;;;;;;10.27;9.87;;;24.20;90.80;;;;;;3512033;40;20505;-63
2021/07/01 07:35:35;;;;;;;10.20;9.80;;;24.20;90.80;;;;;;3509619;40;20491;-63
2021/07/01 07:38:08;;;;;;;10.47;10.10;;;24.20;90.80;;;;;;3513803;40;20495;-63
2021/07/01 07:40:40;;;;;;;10.53;10.03;;;24.20;90.80;;;;;;3508993;40;20534;-63
2021/07/01 07:43:11;;;;;;;10.70;10.30;;;24.20;90.80;;;;;;3507980;40;20483;-63
2021/07/01 07:45:39;;;;;;;10.23;9.93;;;24.20;90.80;;;;;;3499066;40;20648;-63
2021/07/01 07:48:07;;;;;;;10.53;10.13;;;24.20;90.80;;;;;;3507725;40;20474;-63
2021/07/01 07:50:37;;;;;;;10.30;10.00;;;24.20;90.80;;;;;;3512604;40;20491;-63
2021/07/01 07:53:06;;;;;;;10.97;10.40;;;24.20;90.80;;;;;;3509291;40;20827;-63
2021/07/01 07:55:36;;;;;;;10.33;9.93;;;24.20;90.80;;;;;;3506656;40;20884;-63
2021/07/01 07:58:07;;;;;;;10.50;10.20;;;24.30;91.20;;;;;;3513342;40;20772;-62
2021/07/01 08:00:37;;;;;;;11.03;10.67;;;24.20;90.80;;;;;;3510313;40;21034;-63
2021/07/01 08:03:07;;;;;;;10.93;10.53;;;24.20;90.80;;;;;;3504896;40;21248;-63
2021/07/01 08:05:36;;;;;;;11.10;10.70;;;24.20;90.80;;;;;;3506421;40;20479;-63
2021/07/01 08:08:05;;;;;;;11.27;10.77;;;24.20;90.80;;;;;;3512848;40;20485;-63
2021/07/01 08:10:33;;;;;;;10.97;10.67;;;24.20;90.80;;;;;;3511899;40;20910;-64
2021/07/01 08:13:04;;;;;;;10.37;10.07;;;24.20;90.80;;;;;;3513930;40;20474;-61
2021/07/01 08:15:35;;;;;;;10.90;10.50;;;24.20;90.80;;;;;;3513022;40;20566;-60
2021/07/01 08:18:06;;;;;;;11.37;10.97;;;24.20;90.80;;;;;;3515881;40;21438;-64
2021/07/01 08:20:35;;;;;;;11.10;10.70;;;24.20;90.80;;;;;;3499681;40;20503;-63
2021/07/01 08:23:02;;;;;;;11.47;10.93;;;24.20;90.80;;;;;;3506210;40;20475;-64
2021/07/01 08:25:32;;;;;;;10.47;10.07;;;24.20;90.80;;;;;;3511443;40;20482;-64
2021/07/01 08:28:00;;;;;;;10.93;10.53;;;24.20;90.80;;;;;;3513746;40;20518;-64
2021/07/01 08:30:29;;;;;;;12.17;11.77;;;24.20;90.80;;;;;;3515960;40;20514;-64
2021/07/01 08:32:59;;;;;;;12.03;11.63;;;24.20;90.80;;;;;;3514736;40;20504;-64
2021/07/01 08:35:29;;;;;;;12.07;11.67;;;24.30;90.90;;;;;;3513659;40;20505;-60
2021/07/01 08:37:59;;;;;;;12.30;11.70;;;24.20;90.80;;;;;;3513828;40;20487;-63
2021/07/01 08:40:35;;;;;;;12.87;12.37;;;24.20;90.80;;;;;;3511641;40;20490;-63
2021/07/01 08:43:04;;;;;;;11.30;10.90;;;24.20;90.80;;;;;;3513211;40;20486;-63
2021/07/01 08:45:42;;;;;;;11.40;10.87;;;24.20;90.80;;;;;;3514169;40;20650;-64
2021/07/01 08:48:22;;;;;;;12.00;11.50;;;24.20;90.80;;;;;;3515594;40;20510;-64
2021/07/01 08:50:56;;;;;;;11.17;10.77;;;24.30;90.90;;;;;;3512177;40;20714;-64
2021/07/01 08:53:40;;;;;;;12.27;11.77;;;24.20;90.80;;;;;;3516332;40;20501;-64
2021/07/01 08:56:10;;;;;;;12.03;11.53;;;24.20;90.90;;;;;;3513798;40;20504;-64
2021/07/01 08:58:45;;;;;;;11.17;10.77;;;24.20;90.80;;;;;;3512867;40;20586;-64
2021/07/01 09:01:12;;;;;;;11.87;11.37;;;24.20;90.80;;;;;;3511857;40;20470;-64
2021/07/01 09:03:45;;;;;;;11.27;10.87;;;24.20;91.20;;;;;;3508576;40;20480;-64
2021/07/01 09:06:22;;;;;;;12.40;11.90;;;24.20;90.80;;;;;;3507208;40;21133;-63
2021/07/01 09:08:50;;;;;;;11.40;11.00;;;24.20;90.80;;;;;;3509064;40;20746;-63
2021/07/01 09:11:20;;;;;;;12.67;11.73;;;24.20;90.80;;;;;;3511270;40;20487;-63
2021/07/01 09:13:50;;;;;;;11.50;11.10;;;24.20;90.80;;;;;;3498996;40;21058;-63
2021/07/01 09:16:19;;;;;;;11.57;11.07;;;24.20;90.80;;;;;;3501626;40;20471;-63
2021/07/01 09:18:49;;;;;;;11.73;11.33;;;24.20;90.80;;;;;;3508466;40;20577;-63
2021/07/01 09:21:17;;;;;;;11.67;11.27;;;24.20;90.80;;;;;;3508913;40;20495;-61
2021/07/01 09:23:48;;;;;;;11.87;11.47;;;24.30;90.90;;;;;;3501417;40;20479;-61
2021/07/01 09:26:21;;;;;;;11.40;11.00;;;24.20;90.80;;;;;;3501509;40;20478;-63
2021/07/01 09:28:51;;;;;;;12.50;12.07;;;24.20;90.80;;;;;;3497722;40;21109;-63
2021/07/01 09:31:21;;;;;;;12.87;12.37;;;24.20;90.80;;;;;;3475690;40;20579;-63
2021/07/01 09:33:52;;;;;;;12.53;12.03;;;24.20;90.80;;;;;;3485008;40;20477;-63
2021/07/01 09:36:24;;;;;;;12.10;11.63;;;24.20;90.80;;;;;;3492808;40;20478;-63
2021/07/01 09:38:53;;;;;;;11.50;11.07;;;24.30;90.90;;;;;;3490370;40;20479;-63
2021/07/01 09:41:23;;;;;;;11.27;10.87;;;24.20;90.90;;;;;;3501535;40;20586;-63
2021/07/01 09:43:51;;;;;;;10.90;10.50;;;24.20;90.90;;;;;;3499355;40;20506;-63
2021/07/01 09:46:22;;;;;;;11.83;11.33;;;24.20;90.90;;;;;;3513242;40;20499;-63
2021/07/01 09:48:53;;;;;;;10.93;10.47;;;24.30;90.90;;;;;;3513383;40;20478;-63
2021/07/01 09:51:22;;;;;;;10.57;10.00;;;24.20;90.80;;;;;;3512511;40;20518;-63
2021/07/01 09:53:52;;;;;;;12.00;11.37;;;24.20;90.80;;;;;;3515067;40;20848;-63
2021/07/01 09:56:37;;;;;;;11.00;10.60;;;24.20;90.80;;;;;;3508626;40;20483;-64
2021/07/01 09:59:11;;;;;;;11.77;11.37;;;24.20;90.80;;;;;;3501481;40;20495;-63
2021/07/01 10:01:40;;;;;;;10.80;10.40;;;24.30;90.90;;;;;;3504680;40;20498;-63
2021/07/01 10:04:09;;;;;;;12.47;11.77;;;24.20;90.80;;;;;;3512528;40;20483;-63
2021/07/01 10:06:37;;;;;;;11.33;10.90;;;24.30;90.90;;;;;;3515811;40;20478;-63
2021/07/01 10:09:07;;;;;;;11.30;10.90;;;24.30;91.20;;;;;;3524724;40;20469;-64
2021/07/01 10:11:39;;;;;;;11.57;11.07;;;24.30;90.90;;;;;;3511310;40;20522;-61
2021/07/01 10:14:09;;;;;;;11.40;10.90;;;24.30;90.90;;;;;;3517571;40;20584;-61
2021/07/01 10:16:38;;;;;;;10.50;10.00;;;24.30;90.90;;;;;;3524819;40;20557;-61
2021/07/01 10:19:08;;;;;;;11.10;10.70;;;24.30;90.90;;;;;;3524349;40;20575;-61
2021/07/01 10:21:38;;;;;;;11.00;10.60;;;24.20;90.90;;;;;;3522408;40;20490;-61
2021/07/01 10:24:13;;;;;;;12.27;11.70;;;24.30;90.90;;;;;;3526107;40;20489;-61
2021/07/01 10:26:46;;;;;;;12.20;11.80;;;24.30;90.90;;;;;;3520579;40;21187;-61
2021/07/01 10:29:16;;;;;;;11.57;11.17;;;24.30;90.90;;;;;;3515159;40;20487;-60
2021/07/01 10:31:54;;;;;;;11.90;11.50;;;24.20;90.90;;;;;;3521712;40;20514;-60
2021/07/01 10:34:25;;;;;;;11.73;11.23;;;24.30;90.90;;;;;;3514156;40;20569;-61
2021/07/01 10:37:18;;;;;;;11.37;10.97;;;24.20;90.90;;;;;;3510764;40;20490;-61
2021/07/01 10:39:48;;;;;;;12.03;11.43;;;24.30;91.00;;;;;;3512894;40;20534;-60
2021/07/01 10:42:16;;;;;;;12.00;11.50;;;24.30;91.00;;;;;;3504162;40;20527;-61
2021/07/01 10:44:45;;;;;;;11.70;11.30;;;24.30;90.90;;;;;;3504908;40;20482;-60
2021/07/01 10:47:27;;;;;;;12.00;11.50;;;24.20;90.90;;;;;;3514959;40;20511;-61
2021/07/01 10:49:58;;;;;;;11.53;11.03;;;24.30;91.00;;;;;;3515286;40;20549;-61
2021/07/01 10:52:41;;;;;;;11.17;10.77;;;24.20;90.90;;;;;;3507862;40;20543;-61
2021/07/01 10:55:09;;;;;;;11.80;11.30;;;24.20;90.90;;;;;;3513787;40;20934;-60
2021/07/01 10:57:46;;;;;;;11.40;11.00;;;24.20;90.90;;;;;;3508867;40;21110;-61
2021/07/01 11:00:13;;;;;;;11.23;10.70;;;24.20;90.90;;;;;;3515415;40;20475;-62
2021/07/01 11:02:46;;;;;;;11.53;11.00;;;24.30;91.00;;;;;;3516325;40;20874;-62
2021/07/01 11:05:14;;;;;;;12.40;11.80;;;24.20;90.90;;;;;;3512630;40;20826;-62
2021/07/01 11:07:44;;;;;;;12.50;12.00;;;24.20;90.90;;;;;;3515081;40;20542;-60
2021/07/01 11:10:31;;;;;;;13.07;12.57;;;24.30;91.00;;;;;;3514500;40;20541;-61
2021/07/01 11:13:06;;;;;;;11.93;11.33;;;24.30;91.00;;;;;;3516248;40;20859;-61
2021/07/01 11:15:34;;;;;;;12.73;12.13;;;24.30;90.90;;;;;;3516162;40;20886;-61
2021/07/01 11:18:09;;;;;;;12.97;12.20;;;24.30;90.90;;;;;;3514034;40;20478;-61
2021/07/01 11:20:36;;;;;;;12.83;12.03;;;24.30;91.00;;;;;;3516773;40;20478;-61
2021/07/01 11:23:05;;;;;;;13.60;12.83;;;24.30;90.90;;;;;;3515811;40;20574;-61
2021/07/01 11:25:35;;;;;;;13.17;12.57;;;24.30;91.00;;;;;;3516714;40;20933;-60
2021/07/01 11:28:21;;;;;;;12.33;11.83;;;24.30;90.90;;;;;;3516770;40;20542;-59
2021/07/01 11:30:51;;;;;;;12.23;11.63;;;24.30;90.90;;;;;;3512144;40;20475;-61
2021/07/01 11:33:19;;;;;;;11.77;11.27;;;24.30;91.00;;;;;;3511066;40;20874;-61
2021/07/01 11:35:48;;;;;;;12.27;11.63;;;24.30;91.00;;;;;;3513067;40;20483;-61
2021/07/01 11:38:31;;;;;;;12.40;11.80;;;24.20;90.90;;;;;;3513554;40;20514;-61
2021/07/01 11:41:03;;;;;;;13.00;12.30;;;24.30;91.00;;;;;;3517372;40;20482;-61
2021/07/01 11:43:33;;;;;;;12.80;12.20;;;24.20;90.90;;;;;;3515633;40;20581;-61
2021/07/01 11:46:02;;;;;;;13.57;12.97;;;24.30;91.00;;;;;;3516975;40;20494;-61
2021/07/01 11:48:31;;;;;;;12.37;11.87;;;24.30;91.00;;;;;;3515956;40;20475;-61
2021/07/01 11:51:02;;;;;;;12.83;12.23;;;24.20;90.90;;;;;;3518175;40;20510;-61
2021/07/01 11:53:31;;;;;;;13.27;12.67;;;24.30;91.00;;;;;;3515783;40;20860;-62
2021/07/01 11:56:01;;;;;;;12.60;12.00;;;24.30;91.00;;;;;;3515826;40;20728;-61
2021/07/01 11:58:31;;;;;;;12.07;11.57;;;24.30;91.30;;;;;;3514040;40;20584;-61
2021/07/01 12:01:00;;;;;;;12.33;11.73;;;24.20;90.90;;;;;;3516087;40;20482;-61
2021/07/01 12:03:29;;;;;;;12.70;12.20;;;24.30;91.00;;;;;;3514310;40;20515;-61
2021/07/01 12:05:57;;;;;;;12.70;12.07;;;24.30;90.90;;;;;;3511052;40;21026;-61
2021/07/01 12:08:27;;;;;;;12.70;12.20;;;24.30;90.90;;;;;;3517089;40;20481;-61
2021/07/01 12:11:03;;;;;;;11.93;11.53;;;24.20;90.80;;;;;;3524019;40;20892;-60
2021/07/01 12:13:45;;;;;;;12.50;12.00;;;24.30;90.90;;;;;;3520904;40;20485;-61
2021/07/01 12:16:15;;;;;;;12.40;11.90;;;24.30;90.90;;;;;;3521719;40;21153;-62
2021/07/01 12:18:56;;;;;;;12.03;11.43;;;24.30;90.90;;;;;;3523694;40;20489;-60
2021/07/01 12:21:26;;;;;;;11.60;11.20;;;24.30;90.90;;;;;;3524460;40;20485;-61
2021/07/01 12:23:56;;;;;;;11.57;11.17;;;24.30;90.90;;;;;;3511475;40;20494;-61
2021/07/01 12:26:49;;;;;;;11.20;10.80;;;24.30;90.90;;;;;;3513397;40;21066;-61
2021/07/01 12:29:21;;;;;;;11.53;11.10;;;24.30;91.00;;;;;;3517322;40;20514;-61
2021/07/01 12:31:49;;;;;;;11.90;11.40;;;24.30;90.90;;;;;;3512215;40;20570;-61
2021/07/01 12:34:21;;;;;;;12.30;11.80;;;24.30;90.90;;;;;;3509898;40;20682;-60
2021/07/01 12:37:00;;;;;;;12.30;11.70;;;24.20;90.90;;;;;;3511697;40;20474;-60
2021/07/01 12:39:28;;;;;;;12.00;11.50;;;24.30;91.00;;;;;;3515098;40;20495;-60
2021/07/01 12:42:19;;;;;;;12.50;11.80;;;24.20;90.90;;;;;;3518677;40;20497;-60
2021/07/01 12:44:47;;;;;;;11.87;11.37;;;24.30;90.90;;;;;;3514978;40;20708;-59
2021/07/01 12:47:16;;;;;;;11.97;11.47;;;24.20;90.90;;;;;;3517606;40;20487;-59
2021/07/01 12:49:52;;;;;;;12.10;11.50;;;24.20;90.90;;;;;;3515357;40;20473;-60
2021/07/01 12:52:21;;;;;;;11.70;11.27;;;24.20;90.90;;;;;;3517024;40;20498;-60
2021/07/01 12:54:56;;;;;;;12.07;11.57;;;24.20;90.90;;;;;;3516246;40;20486;-62
2021/07/01 12:57:25;;;;;;;12.60;12.10;;;24.30;91.00;;;;;;3517301;40;20800;-62
2021/07/01 12:59:54;;;;;;;12.00;11.50;;;24.30;91.00;;;;;;3510938;40;20510;-62
2021/07/01 13:02:27;;;;;;;12.23;11.73;;;24.20;90.90;;;;;;3516239;40;20479;-62